sensor_id;sensor_type;location;lat;lon;timestamp;P1;durP1;ratioP1;P2;durP2;ratioP2
68923;SDS011;55961;52.156;20.942;2023-03-16T00:01:39;36.55;;;13.40;;
68923;SDS011;55961;52.156;20.942;2023-03-16T00:04:05;32.97;;;12.27;;
68923;SDS011;55961;52.156;20.942;2023-03-16T00:06:31;35.60;;;12.70;;
68923;SDS011;55961;52.156;20.942;2023-03-16T00:08:57;36.67;;;14.32;;
68923;SDS011;55961;52.156;20.942;2023-03-16T00:11:23;32.38;;;12.88;;
68923;SDS011;55961;52.156;20.942;2023-03-16T00:13:50;31.10;;;13.70;;
68923;SDS011;55961;52.156;20.942;2023-03-16T00:16:16;37.60;;;13.57;;
68923;SDS011;55961;52.156;20.942;2023-03-16T00:18:42;40.00;;;14.60;;
68923;SDS011;55961;52.156;20.942;2023-03-16T00:21:08;38.03;;;13.55;;
68923;SDS011;55961;52.156;20.942;2023-03-16T00:23:35;42.17;;;13.90;;
68923;SDS011;55961;52.156;20.942;2023-03-16T00:26:03;41.40;;;13.18;;
68923;SDS011;55961;52.156;20.942;2023-03-16T00:28:31;40.17;;;13.63;;
68923;SDS011;55961;52.156;20.942;2023-03-16T00:31:06;35.05;;;13.02;;
68923;SDS011;55961;52.156;20.942;2023-03-16T00:33:36;37.22;;;13.85;;
68923;SDS011;55961;52.156;20.942;2023-03-16T00:36:03;35.97;;;13.17;;
68923;SDS011;55961;52.156;20.942;2023-03-16T00:38:33;34.08;;;12.30;;
68923;SDS011;55961;52.156;20.942;2023-03-16T00:41:04;36.00;;;14.10;;
68923;SDS011;55961;52.156;20.942;2023-03-16T00:43:32;37.00;;;12.65;;
68923;SDS011;55961;52.156;20.942;2023-03-16T00:46:06;36.80;;;15.13;;
68923;SDS011;55961;52.156;20.942;2023-03-16T00:48:34;36.17;;;12.87;;
68923;SDS011;55961;52.156;20.942;2023-03-16T00:51:05;32.80;;;11.57;;
68923;SDS011;55961;52.156;20.942;2023-03-16T00:53:34;32.03;;;10.98;;
68923;SDS011;55961;52.156;20.942;2023-03-16T00:56:01;30.50;;;10.30;;
68923;SDS011;55961;52.156;20.942;2023-03-16T00:58:32;29.23;;;10.50;;
68923;SDS011;55961;52.156;20.942;2023-03-16T01:01:03;30.20;;;10.60;;
68923;SDS011;55961;52.156;20.942;2023-03-16T01:03:32;26.83;;;10.25;;
68923;SDS011;55961;52.156;20.942;2023-03-16T01:06:02;25.75;;;9.93;;
68923;SDS011;55961;52.156;20.942;2023-03-16T01:08:35;27.20;;;10.70;;
68923;SDS011;55961;52.156;20.942;2023-03-16T01:11:09;33.47;;;10.43;;
68923;SDS011;55961;52.156;20.942;2023-03-16T01:13:37;27.07;;;10.40;;
68923;SDS011;55961;52.156;20.942;2023-03-16T01:16:04;30.63;;;9.93;;
68923;SDS011;55961;52.156;20.942;2023-03-16T01:18:31;31.95;;;9.60;;
68923;SDS011;55961;52.156;20.942;2023-03-16T01:21:00;27.13;;;10.38;;
68923;SDS011;55961;52.156;20.942;2023-03-16T01:23:28;25.40;;;10.00;;
68923;SDS011;55961;52.156;20.942;2023-03-16T01:25:56;29.17;;;10.93;;
68923;SDS011;55961;52.156;20.942;2023-03-16T01:28:24;31.63;;;10.60;;
68923;SDS011;55961;52.156;20.942;2023-03-16T01:30:52;33.35;;;12.40;;
68923;SDS011;55961;52.156;20.942;2023-03-16T01:33:23;26.77;;;10.98;;
68923;SDS011;55961;52.156;20.942;2023-03-16T01:35:51;23.40;;;8.98;;
68923;SDS011;55961;52.156;20.942;2023-03-16T01:38:18;27.70;;;10.53;;
68923;SDS011;55961;52.156;20.942;2023-03-16T01:40:44;35.40;;;11.43;;
68923;SDS011;55961;52.156;20.942;2023-03-16T01:43:10;30.50;;;11.38;;
68923;SDS011;55961;52.156;20.942;2023-03-16T01:54:00;30.20;;;11.02;;
68923;SDS011;55961;52.156;20.942;2023-03-16T01:56:43;28.95;;;10.48;;
68923;SDS011;55961;52.156;20.942;2023-03-16T01:59:17;25.93;;;10.23;;
68923;SDS011;55961;52.156;20.942;2023-03-16T02:01:46;31.10;;;10.95;;
68923;SDS011;55961;52.156;20.942;2023-03-16T02:04:19;32.97;;;11.70;;
68923;SDS011;55961;52.156;20.942;2023-03-16T02:07:02;29.10;;;10.35;;
68923;SDS011;55961;52.156;20.942;2023-03-16T02:09:31;29.95;;;10.77;;
68923;SDS011;55961;52.156;20.942;2023-03-16T02:11:59;25.53;;;10.33;;
68923;SDS011;55961;52.156;20.942;2023-03-16T02:14:26;31.33;;;11.60;;
68923;SDS011;55961;52.156;20.942;2023-03-16T02:16:51;36.33;;;12.23;;
68923;SDS011;55961;52.156;20.942;2023-03-16T02:19:30;27.45;;;10.60;;
68923;SDS011;55961;52.156;20.942;2023-03-16T02:22:16;27.30;;;10.20;;
68923;SDS011;55961;52.156;20.942;2023-03-16T02:24:43;28.40;;;10.85;;
68923;SDS011;55961;52.156;20.942;2023-03-16T02:27:11;31.38;;;11.00;;
68923;SDS011;55961;52.156;20.942;2023-03-16T02:29:55;28.65;;;11.93;;
68923;SDS011;55961;52.156;20.942;2023-03-16T02:32:27;32.35;;;11.15;;
68923;SDS011;55961;52.156;20.942;2023-03-16T02:34:56;26.53;;;10.47;;
68923;SDS011;55961;52.156;20.942;2023-03-16T02:37:24;29.85;;;10.68;;
68923;SDS011;55961;52.156;20.942;2023-03-16T02:39:51;30.17;;;11.43;;
68923;SDS011;55961;52.156;20.942;2023-03-16T02:42:18;28.42;;;10.43;;
68923;SDS011;55961;52.156;20.942;2023-03-16T02:44:51;24.33;;;10.13;;
68923;SDS011;55961;52.156;20.942;2023-03-16T02:47:33;26.40;;;10.00;;
68923;SDS011;55961;52.156;20.942;2023-03-16T02:50:02;35.50;;;10.70;;
68923;SDS011;55961;52.156;20.942;2023-03-16T02:52:32;25.90;;;9.30;;
68923;SDS011;55961;52.156;20.942;2023-03-16T02:54:59;30.33;;;10.93;;
68923;SDS011;55961;52.156;20.942;2023-03-16T02:57:24;29.83;;;11.83;;
68923;SDS011;55961;52.156;20.942;2023-03-16T02:59:50;30.83;;;11.00;;
68923;SDS011;55961;52.156;20.942;2023-03-16T03:02:16;30.85;;;11.57;;
68923;SDS011;55961;52.156;20.942;2023-03-16T03:04:42;36.30;;;12.93;;
68923;SDS011;55961;52.156;20.942;2023-03-16T03:07:12;29.20;;;11.77;;
68923;SDS011;55961;52.156;20.942;2023-03-16T03:09:41;32.35;;;12.23;;
68923;SDS011;55961;52.156;20.942;2023-03-16T03:12:10;35.20;;;11.95;;
68923;SDS011;55961;52.156;20.942;2023-03-16T03:14:37;27.85;;;11.70;;
68923;SDS011;55961;52.156;20.942;2023-03-16T03:17:08;31.55;;;11.65;;
68923;SDS011;55961;52.156;20.942;2023-03-16T03:19:35;31.13;;;11.90;;
68923;SDS011;55961;52.156;20.942;2023-03-16T03:22:02;38.83;;;12.00;;
68923;SDS011;55961;52.156;20.942;2023-03-16T03:24:31;31.30;;;11.32;;
68923;SDS011;55961;52.156;20.942;2023-03-16T03:26:57;36.78;;;11.95;;
68923;SDS011;55961;52.156;20.942;2023-03-16T03:29:31;34.10;;;11.45;;
68923;SDS011;55961;52.156;20.942;2023-03-16T03:32:00;31.37;;;10.33;;
68923;SDS011;55961;52.156;20.942;2023-03-16T03:34:28;33.70;;;11.20;;
68923;SDS011;55961;52.156;20.942;2023-03-16T03:36:54;27.90;;;11.38;;
68923;SDS011;55961;52.156;20.942;2023-03-16T03:39:20;29.58;;;11.05;;
68923;SDS011;55961;52.156;20.942;2023-03-16T03:41:46;30.63;;;11.27;;
68923;SDS011;55961;52.156;20.942;2023-03-16T03:44:12;28.48;;;11.60;;
68923;SDS011;55961;52.156;20.942;2023-03-16T03:46:38;29.83;;;11.90;;
68923;SDS011;55961;52.156;20.942;2023-03-16T03:49:04;29.57;;;11.53;;
68923;SDS011;55961;52.156;20.942;2023-03-16T03:51:32;32.33;;;11.73;;
68923;SDS011;55961;52.156;20.942;2023-03-16T03:53:58;30.40;;;11.35;;
68923;SDS011;55961;52.156;20.942;2023-03-16T03:56:24;31.43;;;10.90;;
68923;SDS011;55961;52.156;20.942;2023-03-16T03:58:51;35.40;;;11.38;;
68923;SDS011;55961;52.156;20.942;2023-03-16T04:01:16;32.20;;;11.95;;
68923;SDS011;55961;52.156;20.942;2023-03-16T04:03:43;34.35;;;11.45;;
68923;SDS011;55961;52.156;20.942;2023-03-16T04:06:09;34.47;;;11.73;;
68923;SDS011;55961;52.156;20.942;2023-03-16T04:08:35;29.50;;;10.95;;
68923;SDS011;55961;52.156;20.942;2023-03-16T04:11:01;34.03;;;11.55;;
68923;SDS011;55961;52.156;20.942;2023-03-16T04:13:27;31.77;;;11.30;;
68923;SDS011;55961;52.156;20.942;2023-03-16T04:15:57;31.55;;;10.95;;
68923;SDS011;55961;52.156;20.942;2023-03-16T04:18:24;29.80;;;10.60;;
68923;SDS011;55961;52.156;20.942;2023-03-16T04:20:50;32.00;;;10.10;;
68923;SDS011;55961;52.156;20.942;2023-03-16T04:23:19;31.83;;;10.98;;
68923;SDS011;55961;52.156;20.942;2023-03-16T04:25:46;24.35;;;8.02;;
68923;SDS011;55961;52.156;20.942;2023-03-16T04:28:12;25.53;;;11.03;;
68923;SDS011;55961;52.156;20.942;2023-03-16T04:30:42;26.63;;;10.07;;
68923;SDS011;55961;52.156;20.942;2023-03-16T04:33:08;30.48;;;11.05;;
68923;SDS011;55961;52.156;20.942;2023-03-16T04:35:33;25.73;;;9.93;;
68923;SDS011;55961;52.156;20.942;2023-03-16T04:37:59;25.23;;;10.87;;
68923;SDS011;55961;52.156;20.942;2023-03-16T04:40:26;32.60;;;12.95;;
68923;SDS011;55961;52.156;20.942;2023-03-16T04:42:52;33.10;;;11.73;;
68923;SDS011;55961;52.156;20.942;2023-03-16T04:45:18;31.03;;;11.30;;
68923;SDS011;55961;52.156;20.942;2023-03-16T04:47:44;29.20;;;11.55;;
68923;SDS011;55961;52.156;20.942;2023-03-16T04:50:10;30.42;;;11.23;;
68923;SDS011;55961;52.156;20.942;2023-03-16T04:52:37;33.17;;;13.85;;
68923;SDS011;55961;52.156;20.942;2023-03-16T04:55:03;31.93;;;12.00;;
68923;SDS011;55961;52.156;20.942;2023-03-16T04:57:30;25.23;;;12.15;;
68923;SDS011;55961;52.156;20.942;2023-03-16T04:59:56;32.88;;;12.18;;
68923;SDS011;55961;52.156;20.942;2023-03-16T05:02:22;29.50;;;11.68;;
68923;SDS011;55961;52.156;20.942;2023-03-16T05:04:48;27.40;;;11.25;;
68923;SDS011;55961;52.156;20.942;2023-03-16T05:07:14;31.63;;;12.27;;
68923;SDS011;55961;52.156;20.942;2023-03-16T05:09:40;28.38;;;10.73;;
68923;SDS011;55961;52.156;20.942;2023-03-16T05:12:06;30.20;;;11.43;;
68923;SDS011;55961;52.156;20.942;2023-03-16T05:14:32;34.00;;;13.30;;
68923;SDS011;55961;52.156;20.942;2023-03-16T05:17:01;30.50;;;12.37;;
68923;SDS011;55961;52.156;20.942;2023-03-16T05:19:30;33.78;;;12.43;;
68923;SDS011;55961;52.156;20.942;2023-03-16T05:21:56;27.33;;;12.25;;
68923;SDS011;55961;52.156;20.942;2023-03-16T05:24:22;31.90;;;11.07;;
68923;SDS011;55961;52.156;20.942;2023-03-16T05:26:48;31.92;;;11.23;;
68923;SDS011;55961;52.156;20.942;2023-03-16T05:29:14;36.50;;;13.13;;
68923;SDS011;55961;52.156;20.942;2023-03-16T05:31:41;39.83;;;13.68;;
68923;SDS011;55961;52.156;20.942;2023-03-16T05:34:06;35.20;;;13.80;;
68923;SDS011;55961;52.156;20.942;2023-03-16T05:36:32;34.30;;;12.50;;
68923;SDS011;55961;52.156;20.942;2023-03-16T05:39:00;35.25;;;11.30;;
68923;SDS011;55961;52.156;20.942;2023-03-16T05:41:26;31.80;;;12.45;;
68923;SDS011;55961;52.156;20.942;2023-03-16T05:43:52;31.35;;;12.02;;
68923;SDS011;55961;52.156;20.942;2023-03-16T05:46:18;35.93;;;13.03;;
68923;SDS011;55961;52.156;20.942;2023-03-16T05:48:44;35.75;;;14.13;;
68923;SDS011;55961;52.156;20.942;2023-03-16T05:51:10;33.08;;;12.30;;
68923;SDS011;55961;52.156;20.942;2023-03-16T05:53:38;41.63;;;13.52;;
68923;SDS011;55961;52.156;20.942;2023-03-16T05:56:04;41.73;;;13.43;;
68923;SDS011;55961;52.156;20.942;2023-03-16T05:58:30;38.35;;;14.07;;
68923;SDS011;55961;52.156;20.942;2023-03-16T06:00:58;31.38;;;11.43;;
68923;SDS011;55961;52.156;20.942;2023-03-16T06:03:27;27.98;;;10.68;;
68923;SDS011;55961;52.156;20.942;2023-03-16T06:05:53;28.50;;;11.07;;
68923;SDS011;55961;52.156;20.942;2023-03-16T06:08:19;29.67;;;11.53;;
68923;SDS011;55961;52.156;20.942;2023-03-16T06:10:45;30.45;;;11.52;;
68923;SDS011;55961;52.156;20.942;2023-03-16T06:13:12;28.77;;;10.88;;
68923;SDS011;55961;52.156;20.942;2023-03-16T06:15:38;30.13;;;11.75;;
68923;SDS011;55961;52.156;20.942;2023-03-16T06:18:04;33.80;;;13.03;;
68923;SDS011;55961;52.156;20.942;2023-03-16T06:20:30;35.35;;;11.15;;
68923;SDS011;55961;52.156;20.942;2023-03-16T06:22:56;33.45;;;12.57;;
68923;SDS011;55961;52.156;20.942;2023-03-16T06:25:22;25.98;;;10.48;;
68923;SDS011;55961;52.156;20.942;2023-03-16T06:27:48;27.73;;;13.80;;
68923;SDS011;55961;52.156;20.942;2023-03-16T06:30:14;34.05;;;13.02;;
68923;SDS011;55961;52.156;20.942;2023-03-16T06:32:40;33.28;;;13.60;;
68923;SDS011;55961;52.156;20.942;2023-03-16T06:35:07;36.42;;;14.55;;
68923;SDS011;55961;52.156;20.942;2023-03-16T06:37:34;33.77;;;12.70;;
68923;SDS011;55961;52.156;20.942;2023-03-16T06:40:00;28.45;;;11.70;;
68923;SDS011;55961;52.156;20.942;2023-03-16T06:42:26;31.08;;;13.27;;
68923;SDS011;55961;52.156;20.942;2023-03-16T06:44:52;34.83;;;13.95;;
68923;SDS011;55961;52.156;20.942;2023-03-16T06:47:18;34.77;;;12.83;;
68923;SDS011;55961;52.156;20.942;2023-03-16T06:49:44;31.27;;;12.77;;
68923;SDS011;55961;52.156;20.942;2023-03-16T06:52:16;33.92;;;12.82;;
68923;SDS011;55961;52.156;20.942;2023-03-16T06:54:42;35.65;;;14.70;;
68923;SDS011;55961;52.156;20.942;2023-03-16T06:57:07;35.23;;;14.70;;
68923;SDS011;55961;52.156;20.942;2023-03-16T06:59:33;31.45;;;12.25;;
68923;SDS011;55961;52.156;20.942;2023-03-16T07:01:59;32.05;;;10.55;;
68923;SDS011;55961;52.156;20.942;2023-03-16T07:04:26;28.33;;;11.43;;
68923;SDS011;55961;52.156;20.942;2023-03-16T07:06:54;21.43;;;9.13;;
68923;SDS011;55961;52.156;20.942;2023-03-16T07:09:38;37.30;;;12.52;;
68923;SDS011;55961;52.156;20.942;2023-03-16T07:12:05;32.03;;;14.05;;
68923;SDS011;55961;52.156;20.942;2023-03-16T07:14:31;32.00;;;13.23;;
68923;SDS011;55961;52.156;20.942;2023-03-16T07:16:58;23.70;;;10.52;;
68923;SDS011;55961;52.156;20.942;2023-03-16T07:19:24;33.30;;;12.00;;
68923;SDS011;55961;52.156;20.942;2023-03-16T07:21:53;17.95;;;7.93;;
68923;SDS011;55961;52.156;20.942;2023-03-16T07:24:19;28.40;;;12.10;;
68923;SDS011;55961;52.156;20.942;2023-03-16T07:26:46;29.23;;;11.68;;
68923;SDS011;55961;52.156;20.942;2023-03-16T07:29:12;34.75;;;12.88;;
68923;SDS011;55961;52.156;20.942;2023-03-16T07:31:39;27.40;;;11.37;;
68923;SDS011;55961;52.156;20.942;2023-03-16T07:34:05;26.88;;;11.85;;
68923;SDS011;55961;52.156;20.942;2023-03-16T07:36:33;26.45;;;11.70;;
68923;SDS011;55961;52.156;20.942;2023-03-16T07:38:59;27.85;;;11.68;;
68923;SDS011;55961;52.156;20.942;2023-03-16T07:41:26;31.45;;;12.32;;
68923;SDS011;55961;52.156;20.942;2023-03-16T07:43:53;28.20;;;12.30;;
68923;SDS011;55961;52.156;20.942;2023-03-16T07:46:20;30.85;;;12.52;;
68923;SDS011;55961;52.156;20.942;2023-03-16T07:48:46;22.30;;;8.77;;
68923;SDS011;55961;52.156;20.942;2023-03-16T07:51:13;22.70;;;9.10;;
68923;SDS011;55961;52.156;20.942;2023-03-16T07:53:40;30.40;;;13.25;;
68923;SDS011;55961;52.156;20.942;2023-03-16T07:56:07;32.37;;;14.00;;
68923;SDS011;55961;52.156;20.942;2023-03-16T07:58:33;33.22;;;13.50;;
68923;SDS011;55961;52.156;20.942;2023-03-16T08:01:00;26.02;;;14.32;;
68923;SDS011;55961;52.156;20.942;2023-03-16T08:03:26;28.60;;;14.98;;
68923;SDS011;55961;52.156;20.942;2023-03-16T08:05:54;28.73;;;13.50;;
68923;SDS011;55961;52.156;20.942;2023-03-16T08:08:21;26.83;;;15.17;;
68923;SDS011;55961;52.156;20.942;2023-03-16T08:10:47;33.22;;;13.35;;
68923;SDS011;55961;52.156;20.942;2023-03-16T08:13:18;27.17;;;12.05;;
68923;SDS011;55961;52.156;20.942;2023-03-16T08:15:46;26.45;;;12.88;;
68923;SDS011;55961;52.156;20.942;2023-03-16T08:18:13;27.75;;;12.85;;
68923;SDS011;55961;52.156;20.942;2023-03-16T08:20:39;26.13;;;11.77;;
68923;SDS011;55961;52.156;20.942;2023-03-16T08:23:06;20.95;;;9.90;;
68923;SDS011;55961;52.156;20.942;2023-03-16T08:25:34;20.27;;;9.23;;
68923;SDS011;55961;52.156;20.942;2023-03-16T08:28:00;21.75;;;10.82;;
68923;SDS011;55961;52.156;20.942;2023-03-16T08:30:27;15.98;;;7.78;;
68923;SDS011;55961;52.156;20.942;2023-03-16T08:32:54;15.53;;;7.27;;
68923;SDS011;55961;52.156;20.942;2023-03-16T08:35:22;15.73;;;6.85;;
68923;SDS011;55961;52.156;20.942;2023-03-16T08:37:48;25.17;;;9.57;;
68923;SDS011;55961;52.156;20.942;2023-03-16T08:40:15;13.30;;;6.80;;
68923;SDS011;55961;52.156;20.942;2023-03-16T08:42:42;22.58;;;9.13;;
68923;SDS011;55961;52.156;20.942;2023-03-16T08:45:10;16.30;;;6.80;;
68923;SDS011;55961;52.156;20.942;2023-03-16T08:47:38;12.82;;;5.93;;
68923;SDS011;55961;52.156;20.942;2023-03-16T08:50:05;15.57;;;6.45;;
68923;SDS011;55961;52.156;20.942;2023-03-16T08:52:33;14.80;;;6.03;;
68923;SDS011;55961;52.156;20.942;2023-03-16T08:55:04;16.05;;;6.07;;
68923;SDS011;55961;52.156;20.942;2023-03-16T08:57:32;17.27;;;6.17;;
68923;SDS011;55961;52.156;20.942;2023-03-16T09:00:10;16.17;;;6.65;;
68923;SDS011;55961;52.156;20.942;2023-03-16T09:02:38;17.92;;;7.05;;
68923;SDS011;55961;52.156;20.942;2023-03-16T09:05:23;17.08;;;6.85;;
68923;SDS011;55961;52.156;20.942;2023-03-16T09:07:50;16.05;;;6.57;;
68923;SDS011;55961;52.156;20.942;2023-03-16T09:10:18;12.97;;;6.07;;
68923;SDS011;55961;52.156;20.942;2023-03-16T09:12:49;15.80;;;6.82;;
68923;SDS011;55961;52.156;20.942;2023-03-16T09:15:18;15.68;;;6.03;;
68923;SDS011;55961;52.156;20.942;2023-03-16T09:17:46;14.15;;;4.93;;
68923;SDS011;55961;52.156;20.942;2023-03-16T09:20:14;11.90;;;5.30;;
68923;SDS011;55961;52.156;20.942;2023-03-16T09:22:45;14.40;;;5.30;;
68923;SDS011;55961;52.156;20.942;2023-03-16T09:25:12;9.82;;;4.07;;
68923;SDS011;55961;52.156;20.942;2023-03-16T09:27:39;14.52;;;4.95;;
68923;SDS011;55961;52.156;20.942;2023-03-16T09:30:06;14.98;;;4.88;;
68923;SDS011;55961;52.156;20.942;2023-03-16T09:32:33;14.18;;;4.90;;
68923;SDS011;55961;52.156;20.942;2023-03-16T09:35:02;10.80;;;3.80;;
68923;SDS011;55961;52.156;20.942;2023-03-16T09:37:31;13.10;;;3.60;;
68923;SDS011;55961;52.156;20.942;2023-03-16T09:39:58;13.57;;;3.25;;
68923;SDS011;55961;52.156;20.942;2023-03-16T09:42:26;9.68;;;2.88;;
68923;SDS011;55961;52.156;20.942;2023-03-16T09:48:02;8.37;;;2.30;;
68923;SDS011;55961;52.156;20.942;2023-03-16T09:50:32;11.82;;;3.30;;
68923;SDS011;55961;52.156;20.942;2023-03-16T09:56:01;9.90;;;3.50;;
68923;SDS011;55961;52.156;20.942;2023-03-16T09:58:35;14.75;;;2.97;;
68923;SDS011;55961;52.156;20.942;2023-03-16T10:01:08;8.30;;;2.83;;
68923;SDS011;55961;52.156;20.942;2023-03-16T10:06:48;6.47;;;1.58;;
68923;SDS011;55961;52.156;20.942;2023-03-16T10:09:37;5.85;;;1.52;;
68923;SDS011;55961;52.156;20.942;2023-03-16T10:12:21;5.32;;;1.58;;
68923;SDS011;55961;52.156;20.942;2023-03-16T10:15:06;6.03;;;2.37;;
68923;SDS011;55961;52.156;20.942;2023-03-16T10:20:30;6.90;;;1.45;;
68923;SDS011;55961;52.156;20.942;2023-03-16T10:22:58;6.18;;;2.22;;
68923;SDS011;55961;52.156;20.942;2023-03-16T10:25:45;7.28;;;1.98;;
68923;SDS011;55961;52.156;20.942;2023-03-16T10:28:17;5.97;;;1.00;;
68923;SDS011;55961;52.156;20.942;2023-03-16T10:30:49;6.13;;;1.40;;
68923;SDS011;55961;52.156;20.942;2023-03-16T10:33:18;6.13;;;1.40;;
68923;SDS011;55961;52.156;20.942;2023-03-16T10:36:03;6.35;;;1.33;;
68923;SDS011;55961;52.156;20.942;2023-03-16T10:39:01;7.65;;;1.58;;
68923;SDS011;55961;52.156;20.942;2023-03-16T10:41:32;9.53;;;2.20;;
68923;SDS011;55961;52.156;20.942;2023-03-16T10:44:01;6.88;;;2.80;;
68923;SDS011;55961;52.156;20.942;2023-03-16T10:46:39;14.45;;;3.40;;
68923;SDS011;55961;52.156;20.942;2023-03-16T10:51:51;9.30;;;3.33;;
68923;SDS011;55961;52.156;20.942;2023-03-16T10:54:27;12.97;;;4.40;;
68923;SDS011;55961;52.156;20.942;2023-03-16T10:56:56;12.57;;;3.60;;
68923;SDS011;55961;52.156;20.942;2023-03-16T11:02:01;8.88;;;2.42;;
68923;SDS011;55961;52.156;20.942;2023-03-16T11:04:45;9.55;;;4.07;;
68923;SDS011;55961;52.156;20.942;2023-03-16T11:07:17;8.27;;;3.10;;
68923;SDS011;55961;52.156;20.942;2023-03-16T11:09:45;9.85;;;3.83;;
68923;SDS011;55961;52.156;20.942;2023-03-16T11:12:25;10.68;;;3.50;;
68923;SDS011;55961;52.156;20.942;2023-03-16T11:15:11;12.10;;;4.15;;
68923;SDS011;55961;52.156;20.942;2023-03-16T11:17:41;14.70;;;4.78;;
68923;SDS011;55961;52.156;20.942;2023-03-16T11:20:15;14.70;;;4.97;;
68923;SDS011;55961;52.156;20.942;2023-03-16T11:22:49;12.82;;;4.18;;
68923;SDS011;55961;52.156;20.942;2023-03-16T11:30:40;17.73;;;4.55;;
68923;SDS011;55961;52.156;20.942;2023-03-16T11:33:26;13.50;;;4.00;;
68923;SDS011;55961;52.156;20.942;2023-03-16T11:38:42;11.98;;;3.50;;
68923;SDS011;55961;52.156;20.942;2023-03-16T11:50:33;10.18;;;1.52;;
68923;SDS011;55961;52.156;20.942;2023-03-16T11:53:31;11.65;;;2.58;;
68923;SDS011;55961;52.156;20.942;2023-03-16T12:02:15;10.63;;;2.80;;
68923;SDS011;55961;52.156;20.942;2023-03-16T12:12:46;4.38;;;1.45;;
68923;SDS011;55961;52.156;20.942;2023-03-16T12:15:54;8.67;;;2.00;;
68923;SDS011;55961;52.156;20.942;2023-03-16T12:18:38;7.30;;;2.00;;
68923;SDS011;55961;52.156;20.942;2023-03-16T12:21:18;7.00;;;1.60;;
68923;SDS011;55961;52.156;20.942;2023-03-16T12:23:55;7.63;;;2.20;;
68923;SDS011;55961;52.156;20.942;2023-03-16T12:26:26;7.78;;;2.17;;
68923;SDS011;55961;52.156;20.942;2023-03-16T12:28:57;9.63;;;2.13;;
68923;SDS011;55961;52.156;20.942;2023-03-16T12:32:28;13.70;;;2.88;;
68923;SDS011;55961;52.156;20.942;2023-03-16T12:40:15;13.98;;;3.30;;
68923;SDS011;55961;52.156;20.942;2023-03-16T12:46:13;9.48;;;2.78;;
68923;SDS011;55961;52.156;20.942;2023-03-16T12:48:51;15.40;;;4.07;;
68923;SDS011;55961;52.156;20.942;2023-03-16T12:51:34;13.00;;;4.68;;
68923;SDS011;55961;52.156;20.942;2023-03-16T12:54:19;10.98;;;3.10;;
68923;SDS011;55961;52.156;20.942;2023-03-16T12:56:48;15.90;;;4.47;;
68923;SDS011;55961;52.156;20.942;2023-03-16T12:59:19;15.70;;;3.58;;
68923;SDS011;55961;52.156;20.942;2023-03-16T13:01:56;16.40;;;4.47;;
68923;SDS011;55961;52.156;20.942;2023-03-16T13:04:33;7.72;;;1.92;;
68923;SDS011;55961;52.156;20.942;2023-03-16T13:07:19;9.63;;;1.90;;
68923;SDS011;55961;52.156;20.942;2023-03-16T13:09:51;10.80;;;2.63;;
68923;SDS011;55961;52.156;20.942;2023-03-16T13:12:21;10.65;;;2.25;;
68923;SDS011;55961;52.156;20.942;2023-03-16T13:18:02;7.00;;;1.05;;
68923;SDS011;55961;52.156;20.942;2023-03-16T13:20:56;8.15;;;2.03;;
68923;SDS011;55961;52.156;20.942;2023-03-16T13:23:28;7.23;;;2.70;;
68923;SDS011;55961;52.156;20.942;2023-03-16T13:26:15;17.17;;;3.83;;
68923;SDS011;55961;52.156;20.942;2023-03-16T13:28:44;9.13;;;2.97;;
68923;SDS011;55961;52.156;20.942;2023-03-16T13:31:21;10.55;;;3.67;;
68923;SDS011;55961;52.156;20.942;2023-03-16T13:34:00;12.95;;;4.15;;
68923;SDS011;55961;52.156;20.942;2023-03-16T13:36:28;13.00;;;3.53;;
68923;SDS011;55961;52.156;20.942;2023-03-16T13:39:12;13.98;;;3.92;;
68923;SDS011;55961;52.156;20.942;2023-03-16T13:44:43;11.95;;;3.38;;
68923;SDS011;55961;52.156;20.942;2023-03-16T13:47:16;10.32;;;2.63;;
68923;SDS011;55961;52.156;20.942;2023-03-16T13:49:48;9.70;;;2.67;;
68923;SDS011;55961;52.156;20.942;2023-03-16T13:52:27;8.52;;;2.00;;
68923;SDS011;55961;52.156;20.942;2023-03-16T13:54:59;7.75;;;1.90;;
68923;SDS011;55961;52.156;20.942;2023-03-16T13:57:28;6.55;;;1.65;;
68923;SDS011;55961;52.156;20.942;2023-03-16T14:00:02;10.88;;;2.28;;
68923;SDS011;55961;52.156;20.942;2023-03-16T14:02:30;9.17;;;2.07;;
68923;SDS011;55961;52.156;20.942;2023-03-16T14:05:08;8.88;;;2.58;;
68923;SDS011;55961;52.156;20.942;2023-03-16T14:07:36;9.93;;;2.60;;
68923;SDS011;55961;52.156;20.942;2023-03-16T14:10:04;12.55;;;2.78;;
68923;SDS011;55961;52.156;20.942;2023-03-16T14:12:31;10.93;;;2.40;;
68923;SDS011;55961;52.156;20.942;2023-03-16T14:14:57;8.40;;;2.43;;
68923;SDS011;55961;52.156;20.942;2023-03-16T14:17:23;10.57;;;2.53;;
68923;SDS011;55961;52.156;20.942;2023-03-16T14:19:58;8.02;;;2.42;;
68923;SDS011;55961;52.156;20.942;2023-03-16T14:22:33;12.60;;;3.38;;
68923;SDS011;55961;52.156;20.942;2023-03-16T14:25:01;8.00;;;2.45;;
68923;SDS011;55961;52.156;20.942;2023-03-16T14:30:16;11.10;;;3.00;;
68923;SDS011;55961;52.156;20.942;2023-03-16T14:32:52;10.35;;;2.65;;
68923;SDS011;55961;52.156;20.942;2023-03-16T14:35:45;7.97;;;3.10;;
68923;SDS011;55961;52.156;20.942;2023-03-16T14:38:17;10.27;;;2.00;;
68923;SDS011;55961;52.156;20.942;2023-03-16T14:40:55;10.05;;;2.47;;
68923;SDS011;55961;52.156;20.942;2023-03-16T14:43:31;8.65;;;2.60;;
68923;SDS011;55961;52.156;20.942;2023-03-16T14:46:01;10.25;;;2.70;;
68923;SDS011;55961;52.156;20.942;2023-03-16T14:48:32;8.23;;;2.15;;
68923;SDS011;55961;52.156;20.942;2023-03-16T14:51:00;10.63;;;3.70;;
68923;SDS011;55961;52.156;20.942;2023-03-16T14:53:27;10.73;;;4.55;;
68923;SDS011;55961;52.156;20.942;2023-03-16T14:55:54;11.35;;;3.70;;
68923;SDS011;55961;52.156;20.942;2023-03-16T14:58:21;12.95;;;2.90;;
68923;SDS011;55961;52.156;20.942;2023-03-16T15:00:47;9.75;;;2.50;;
68923;SDS011;55961;52.156;20.942;2023-03-16T15:03:16;7.50;;;2.70;;
68923;SDS011;55961;52.156;20.942;2023-03-16T15:05:45;8.30;;;2.97;;
68923;SDS011;55961;52.156;20.942;2023-03-16T15:08:16;13.02;;;2.85;;
68923;SDS011;55961;52.156;20.942;2023-03-16T15:10:46;13.70;;;3.25;;
68923;SDS011;55961;52.156;20.942;2023-03-16T15:13:13;7.63;;;3.00;;
68923;SDS011;55961;52.156;20.942;2023-03-16T15:16:02;6.93;;;2.50;;
68923;SDS011;55961;52.156;20.942;2023-03-16T15:18:29;10.77;;;3.17;;
68923;SDS011;55961;52.156;20.942;2023-03-16T15:20:59;6.60;;;2.25;;
68923;SDS011;55961;52.156;20.942;2023-03-16T15:23:30;6.68;;;2.40;;
68923;SDS011;55961;52.156;20.942;2023-03-16T15:25:56;10.90;;;3.00;;
68923;SDS011;55961;52.156;20.942;2023-03-16T15:28:25;9.77;;;1.97;;
68923;SDS011;55961;52.156;20.942;2023-03-16T15:30:52;7.32;;;1.83;;
68923;SDS011;55961;52.156;20.942;2023-03-16T15:33:20;10.13;;;2.15;;
68923;SDS011;55961;52.156;20.942;2023-03-16T15:35:47;7.53;;;2.53;;
68923;SDS011;55961;52.156;20.942;2023-03-16T15:38:15;7.93;;;2.47;;
68923;SDS011;55961;52.156;20.942;2023-03-16T15:40:45;8.90;;;2.73;;
68923;SDS011;55961;52.156;20.942;2023-03-16T15:43:13;10.95;;;3.15;;
68923;SDS011;55961;52.156;20.942;2023-03-16T15:45:41;10.00;;;2.78;;
68923;SDS011;55961;52.156;20.942;2023-03-16T15:48:08;8.93;;;2.08;;